Aviation Digital Data Service (ADDS)

Output produced by METARs form (0840 UTC 29 July 2014)
found at http://www.aviationweather.gov/adds/metars/
 
KSEG 290753Z AUTO 30005KT 9SM SCT075 16/13 A2985 RMK AO2 SLP104 T01560128
KSEG 290653Z AUTO 00000KT 10SM OVC080 16/14 A2984 RMK AO2 SLP103 T01560139
KSEG 290553Z AUTO 30004KT 10SM BKN033 OVC040 16/13 A2985 RMK AO2 SLP104 T01610133 10194 20156 50005
KSEG 290453Z AUTO 00000KT 10SM BKN085 16/14 A2985 RMK AO2 SLP105 T01560144 402610156
KSEG 290353Z AUTO 31004KT 10SM FEW100 17/13 A2985 RMK AO2 SLP104 T01720128
KSEG 290253Z AUTO 30005KT 10SM BKN035 OVC080 18/14 A2983 RMK AO2 SLP099 T01830139 51026
KSEG 290153Z AUTO 05003KT 10SM SCT034 OVC042 19/14 A2981 RMK AO2 SLP093 T01890144
KSEG 290053Z AUTO 32006KT 10SM SCT070 BKN110 19/14 A2979 RMK AO2 SLP084 T01890144
KSEG 282353Z AUTO 33006KT 10SM FEW065 BKN080 20/15 A2975 RMK AO2 RAB32E41 SLP073 P0000 60023 T02000150 10261 20183 53025
KSEG 282253Z AUTO VRB04KT 10SM FEW039 BKN050 OVC090 21/18 A2972 RMK AO2 RAE14 SLP061 P0000 T02110178
KSEG 282153Z AUTO VRB03KT 9SM -RA SCT065 SCT080 OVC100 19/18 A2970 RMK AO2 SLP056 P0002 T01940178
KSEG 282053Z AUTO 00000KT 5SM -RA BR OVC100 19/17 A2968 RMK AO2 RAB1958 SLP048 P0021 60021 T01890172 53025
KSEG 282024Z AUTO 28004KT 3SM RA BR SCT036 BKN075 OVC090 19/18 A2967 RMK AO2 RAB1958 P0019 T01890178
KSEG 282019Z AUTO VRB05KT 1 1/4SM RA BR BKN036 BKN050 OVC075 19/17 A2967 RMK AO2 RAB1958 P0018 T01890172
KSEG 282014Z AUTO 29007KT 3/4SM +RA BR BKN035 BKN043 OVC050 18/17 A2967 RMK AO2 RAB1958 P0017 T01830172
KSEG 282006Z AUTO 27007G18KT 240V300 1SM +RA BR FEW023 BKN042 OVC050 19/17 A2966 RMK AO2 VIS 1/2V5 RAB1958 P0010 T01890167
KSEG 281953Z AUTO 27007KT 230V290 10SM BKN046 BKN060 BKN095 24/16 A2963 RMK AO2 SLP030 T02440156
KSEG 281853Z AUTO 27007G19KT 240V310 10SM CLR 26/16 A2961 RMK AO2 LTG DSNT N SLP023 T02560156
KSEG 281753Z AUTO 23008KT 190V270 10SM SCT042 SCT050 BKN070 26/17 A2960 RMK AO2 SLP021 T02560167 10256 20194 58005
KSEG 281653Z AUTO VRB06KT 10SM FEW042 SCT055 25/16 A2961 RMK AO2 SLP023 T02500161
KSEG 281553Z AUTO VRB06KT 10SM SCT040 SCT110 24/16 A2962 RMK AO2 SLP028 T02440161
KSEG 281453Z AUTO VRB03KT 10SM OVC038 23/17 A2962 RMK AO2 SLP026 T02280167 51013
KSEG 281353Z AUTO VRB06KT 10SM BKN039 BKN048 23/17 A2961 RMK AO2 SLP025 T02280172
KSEG 281253Z AUTO VRB03KT 10SM FEW017 BKN036 22/18 A2960 RMK AO2 SLP020 T02170183
KSEG 281209Z AUTO VRB04KT 9SM FEW006 FEW011 20/18 A2959 RMK AO2 T02000183
KSEG 281153Z AUTO 18003KT 9SM FEW006 BKN012 19/18 A2958 RMK AO2 SLP012 60020 70039 T01940178 10194 20178 53003
KSEG 281133Z AUTO VRB03KT 8SM BKN013 OVC025 19/18 A2957 RMK AO2 T01890178
KSEG 281125Z AUTO 00000KT 7SM BKN015 OVC023 19/18 A2958 RMK AO2 T01890178
KSEG 281114Z AUTO 00000KT 7SM FEW010 BKN014 OVC023 19/18 A2958 RMK AO2 T01890178
KSEG 281101Z AUTO 00000KT 6SM BR FEW008 BKN025 OVC032 19/18 A2957 RMK AO2 T01890178
KSEG 281053Z AUTO 00000KT 5SM BR FEW008 SCT014 BKN031 18/17 A2957 RMK AO2 SLP011 T01830172
KSEG 281049Z AUTO 00000KT 5SM BR FEW008 FEW016 BKN031 18/17 A2957 RMK AO2
KSEG 280953Z AUTO 00000KT 8SM BKN038 18/17 A2957 RMK AO2 SLP009 T01830172
KSEG 280931Z AUTO 00000KT 9SM FEW009 FEW014 BKN038 18/17 A2958 RMK AO2 T01780172
KSEG 280853Z AUTO 00000KT 8SM BKN014 18/18 A2955 RMK AO2 SLP003 60020 T01830178 56020
KSEG 280849Z AUTO 00000KT 8SM BKN014 18/18 A2956 RMK AO2
KSEG 280753Z AUTO 00000KT 6SM BR FEW006 BKN017 18/18 A2956 RMK AO2 RAE41 SLP006 P0014 T01830178
KSEG 280735Z AUTO 00000KT 7SM -RA FEW006 SCT070 BKN090 19/18 A2957 RMK AO2 P0014 T01890178
KSEG 280720Z AUTO 07003KT 4SM RA BR SCT050 BKN070 OVC110 18/18 A2957 RMK AO2 PRESFR P0013 T01830178
KSEG 280653Z AUTO VRB03KT 2SM +RA BR BKN048 BKN090 19/18 A2961 RMK AO2 RAB14E26B27 SLP024 P0006 T01890178
KSEG 280641Z AUTO 00000KT 8SM -RA FEW048 SCT070 BKN090 19/18 A2961 RMK AO2 LTG DSNT W-N RAB14E26B27 P0001 T01940183
KSEG 280626Z AUTO 00000KT 10SM VCTS FEW070 SCT100 BKN120 19/18 A2960 RMK AO2 LTG DSNT W RAB14E26 P0000 T01940183
KSEG 280553Z AUTO 00000KT 9SM FEW005 19/18 A2958 RMK AO2 LTG DSNT SW SLP014 60019 T01940183 10267 20194 55021
KSEG 280550Z AUTO VRB03KT 8SM SCT005 19/18 A2958 RMK AO2 PRESFR
KSEG 280453Z AUTO 00000KT 8SM BKN006 OVC075 19/19 A2964 RMK AO2 RAB01E20 SLP032 P0000 T01940189 403110178
KSEG 280443Z AUTO 00000KT 7SM BKN006 OVC075 19/19 A2964 RMK AO2 RAB01E20 P0000 T01940189
KSEG 280425Z AUTO 00000KT 9SM SCT006 SCT080 OVC110 19/18 A2964 RMK AO2 RAB01E20 P0000 T01940183
KSEG 280353Z AUTO 00000KT 8SM BKN090 20/19 A2965 RMK AO2 SLP035 T02000189
KSEG 280301Z AUTO 20003KT 7SM SCT007 OVC100 20/19 A2967 RMK AO2 T02000189
KSEG 280253Z AUTO 00000KT 7SM OVC110 20/19 A2968 RMK AO2 RAE44 SLP045 P0003 60019 T02000189 50006
KSEG 280153Z AUTO 19004KT 8SM -RA FEW070 SCT095 OVC120 20/19 A2972 RMK AO2 LTG DSNT NE-SE TSE06 SLP061 P0011 T02000189
KSEG 280140Z AUTO 17007KT 6SM -RA BR BKN065 BKN085 OVC110 20/18 A2972 RMK AO2 LTG DSNT N-E TSE06 P0011 T02000183
KSEG 280112Z AUTO 29008G17KT 3SM VCTS RA BR SCT080 OVC100 20/19 A2974 RMK AO2 LTG DSNT ALQDS TSE06 P0006 T02000189
KSEG 280053Z AUTO 26009G15KT 5SM TSRA BR SCT048 BKN065 OVC075 21/19 A2974 RMK AO2 LTG DSNT ALQDS RAB13 TSB32E47B51 PRESRR SLP067 P0005 T02110189
KSEG 280038Z AUTO 23006KT 4SM -TSRA BR BKN048 OVC060 22/20 A2970 RMK AO2 LTG DSNT ALQDS RAB13 TSB32 P0003 T02220200
KSEG 272353Z AUTO 18007KT 7SM FEW065 27/19 A2966 RMK AO2 LTG DSNT E-SW SLP039 T02670194 10311 20261 55012
KSEG 272253Z AUTO 00000KT 6SM HZ CLR 26/23 A2965 RMK AO2 LTG DSNT S SLP037 T02610228
KSEG 272153Z AUTO VRB03KT 7SM CLR 29/19 A2967 RMK AO2 LTG DSNT SW SLP043 T02890194
KSEG 272053Z AUTO 28003KT 8SM FEW055 31/19 A2969 RMK AO2 SLP051 T03060189 58017